Time,TemperatureF,DewpointF,PressureIn,WindDirection,WindDirectionDegrees,WindSpeedMPH,WindSpeedGustMPH,Humidity,HourlyPrecipIn,Conditions,Clouds,dailyrainin,SoftwareType,DateUTC
2013-11-13 00:01:00,29.5,2.6,30.41,ENE,68,3.1,4.0,31,0.00,,CLR,0.00,VWS V14.01,2013-11-13 05:01:00,
2013-11-13 00:02:00,29.5,2.6,30.41,ENE,68,0.0,3.1,31,0.00,,CLR,0.00,VWS V14.01,2013-11-13 05:02:00,
2013-11-13 00:04:00,29.5,2.6,30.41,ENE,68,3.1,3.1,31,0.00,,CLR,0.00,VWS V14.01,2013-11-13 05:04:00,
2013-11-13 00:09:00,29.1,2.3,30.41,ENE,68,3.1,3.1,31,0.00,,CLR,0.00,VWS V14.01,2013-11-13 05:09:00,
2013-11-13 00:14:00,29.3,2.4,30.41,ENE,68,2.7,3.6,31,0.00,,CLR,0.00,VWS V14.01,2013-11-13 05:14:00,
2013-11-13 00:19:00,29.3,2.4,30.41,ENE,68,0.0,0.0,31,0.00,,CLR,0.00,VWS V14.01,2013-11-13 05:19:00,
2013-11-13 00:24:00,29.5,2.6,30.41,NNE,22,4.0,4.0,31,0.00,,CLR,0.00,VWS V14.01,2013-11-13 05:24:00,
2013-11-13 00:29:00,29.5,2.6,30.41,ENE,68,4.0,4.9,31,0.00,,CLR,0.00,VWS V14.01,2013-11-13 05:29:00,
2013-11-13 00:34:00,29.5,2.6,30.44,ENE,68,4.0,4.0,31,0.00,,CLR,0.00,VWS V14.01,2013-11-13 05:34:00,
2013-11-13 00:39:00,29.5,2.6,30.44,NE,45,2.2,2.2,31,0.00,,CLR,0.00,VWS V14.01,2013-11-13 05:39:00,
2013-11-13 00:44:00,29.5,2.6,30.44,NE,45,2.2,2.2,31,0.00,,CLR,0.00,VWS V14.01,2013-11-13 05:44:00,
2013-11-13 00:49:00,29.3,2.4,30.41,NE,45,3.6,3.6,31,0.00,,CLR,0.00,VWS V14.01,2013-11-13 05:49:00,
2013-11-13 00:54:00,29.5,2.6,30.41,NNE,22,3.1,3.1,31,0.00,,CLR,0.00,VWS V14.01,2013-11-13 05:54:00,
2013-11-13 00:59:00,29.3,2.4,30.41,NNE,22,2.7,2.7,31,0.00,,CLR,0.00,VWS V14.01,2013-11-13 05:59:00,
2013-11-13 01:04:00,29.5,2.6,30.41,ENE,68,3.6,3.6,31,0.00,,CLR,0.00,VWS V14.01,2013-11-13 06:04:00,
2013-11-13 01:09:00,29.3,3.1,30.41,NE,45,3.6,5.4,32,0.00,,CLR,0.00,VWS V14.01,2013-11-13 06:09:00,
2013-11-13 01:14:00,29.5,2.6,30.41,NE,45,3.1,3.1,31,0.00,,CLR,0.00,VWS V14.01,2013-11-13 06:14:00,
2013-11-13 01:19:00,29.3,3.1,30.41,NNE,22,2.7,2.7,32,0.00,,CLR,0.00,VWS V14.01,2013-11-13 06:19:00,
2013-11-13 01:24:00,28.8,2.6,30.41,NNE,22,0.0,2.7,32,0.00,,CLR,0.00,VWS V14.01,2013-11-13 06:24:00,
2013-11-13 01:29:00,28.4,2.3,30.41,NNE,22,3.1,3.1,32,0.00,,CLR,0.00,VWS V14.01,2013-11-13 06:29:00,
2013-11-13 01:34:00,27.9,2.5,30.41,NNE,22,0.0,0.0,33,0.00,,CLR,0.00,VWS V14.01,2013-11-13 06:34:00,
2013-11-13 01:39:00,27.7,2.3,30.41,NNE,22,0.0,0.0,33,0.00,,CLR,0.00,VWS V14.01,2013-11-13 06:39:00,
2013-11-13 01:44:00,27.5,2.2,30.41,NNE,22,0.0,0.0,33,0.00,,CLR,0.00,VWS V14.01,2013-11-13 06:44:00,
2013-11-13 01:49:00,27.1,1.9,30.41,NNE,22,0.0,0.0,33,0.00,,CLR,0.00,VWS V14.01,2013-11-13 06:49:00,
2013-11-13 01:54:00,27.0,2.3,30.41,NNE,22,2.7,2.7,34,0.00,,CLR,0.00,VWS V14.01,2013-11-13 06:54:00,
2013-11-13 01:59:00,27.0,2.3,30.41,NNE,22,0.0,0.0,34,0.00,,CLR,0.00,VWS V14.01,2013-11-13 06:59:00,
2013-11-13 02:04:00,26.4,2.5,30.41,NNE,22,0.0,0.0,35,0.00,,CLR,0.00,VWS V14.01,2013-11-13 07:04:00,
2013-11-13 02:09:00,26.2,2.9,30.41,NNE,22,0.0,0.0,36,0.00,,CLR,0.00,VWS V14.01,2013-11-13 07:09:00,
2013-11-13 02:14:00,25.9,2.6,30.41,NNE,22,0.0,0.0,36,0.00,,CLR,0.00,VWS V14.01,2013-11-13 07:14:00,
2013-11-13 02:19:00,25.9,3.2,30.41,NNE,22,0.0,0.0,37,0.00,,CLR,0.00,VWS V14.01,2013-11-13 07:19:00,
2013-11-13 02:24:00,26.1,3.4,30.41,NNE,22,0.0,0.0,37,0.00,,CLR,0.00,VWS V14.01,2013-11-13 07:24:00,
2013-11-13 02:29:00,25.5,4.0,30.41,NNE,22,0.0,0.0,39,0.00,,CLR,0.00,VWS V14.01,2013-11-13 07:29:00,
2013-11-13 02:34:00,25.3,4.4,30.41,NNE,22,0.0,0.0,40,0.00,,CLR,0.00,VWS V14.01,2013-11-13 07:34:00,
2013-11-13 02:39:00,25.0,4.1,30.41,NNE,22,0.0,0.0,40,0.00,,CLR,0.00,VWS V14.01,2013-11-13 07:39:00,
2013-11-13 02:44:00,24.8,5.0,30.41,NNE,22,0.0,0.0,42,0.00,,CLR,0.00,VWS V14.01,2013-11-13 07:44:00,
2013-11-13 02:49:00,25.3,4.9,30.41,NNE,22,2.2,2.2,41,0.00,,CLR,0.00,VWS V14.01,2013-11-13 07:49:00,
2013-11-13 02:54:00,25.3,4.9,30.41,NNE,22,2.2,2.2,41,0.00,,CLR,0.00,VWS V14.01,2013-11-13 07:54:00,
2013-11-13 02:59:00,25.3,4.9,30.41,NNE,22,2.2,2.2,41,0.00,,CLR,0.00,VWS V14.01,2013-11-13 07:59:00,
2013-11-13 03:04:00,25.7,5.3,30.41,NNE,22,0.0,0.0,41,0.00,,CLR,0.00,VWS V14.01,2013-11-13 08:04:00,
2013-11-13 03:09:00,25.3,4.9,30.41,ENE,68,3.6,3.6,41,0.00,,CLR,0.00,VWS V14.01,2013-11-13 08:09:00,
2013-11-13 03:14:00,25.2,4.8,30.41,ENE,68,4.0,4.0,41,0.00,,CLR,0.00,VWS V14.01,2013-11-13 08:14:00,
2013-11-13 03:19:00,25.3,4.9,30.41,ENE,68,0.0,0.0,41,0.00,,CLR,0.00,VWS V14.01,2013-11-13 08:19:00,
2013-11-13 03:24:00,25.2,4.8,30.41,ENE,68,0.0,0.0,41,0.00,,CLR,0.00,VWS V14.01,2013-11-13 08:24:00,
2013-11-13 03:29:00,24.8,5.0,30.41,ENE,68,0.0,0.0,42,0.00,,CLR,0.00,VWS V14.01,2013-11-13 08:29:00,
2013-11-13 03:35:00,25.2,4.8,30.41,ENE,68,0.0,0.0,41,0.00,,CLR,0.00,VWS V14.01,2013-11-13 08:35:00,
2013-11-13 03:40:00,25.2,4.8,30.41,ENE,68,0.0,0.0,41,0.00,,CLR,0.00,VWS V14.01,2013-11-13 08:40:00,
2013-11-13 03:45:00,25.0,4.6,30.41,ENE,68,0.0,0.0,41,0.00,,CLR,0.00,VWS V14.01,2013-11-13 08:45:00,
2013-11-13 03:50:00,25.0,4.6,30.41,ENE,68,0.0,0.0,41,0.00,,CLR,0.00,VWS V14.01,2013-11-13 08:50:00,
2013-11-13 03:55:00,24.8,5.0,30.41,ENE,68,0.0,0.0,42,0.00,,CLR,0.00,VWS V14.01,2013-11-13 08:55:00,
2013-11-13 04:00:00,24.6,4.8,30.41,ENE,68,0.0,0.0,42,0.00,,CLR,0.00,VWS V14.01,2013-11-13 09:00:00,
2013-11-13 04:05:00,25.2,5.3,30.41,SE,135,2.2,3.1,42,0.00,,CLR,0.00,VWS V14.01,2013-11-13 09:05:00,
2013-11-13 04:10:00,24.4,4.7,30.41,SE,135,0.0,0.0,42,0.00,,CLR,0.00,VWS V14.01,2013-11-13 09:10:00,
2013-11-13 04:15:00,24.6,4.8,30.41,SE,135,0.0,0.0,42,0.00,,CLR,0.00,VWS V14.01,2013-11-13 09:15:00,
2013-11-13 04:20:00,25.0,5.1,30.41,SE,135,0.0,0.0,42,0.00,,CLR,0.00,VWS V14.01,2013-11-13 09:20:00,
2013-11-13 04:25:00,24.8,5.0,30.41,SE,135,0.0,0.0,42,0.00,,CLR,0.00,VWS V14.01,2013-11-13 09:25:00,
2013-11-13 04:30:00,24.4,4.7,30.41,SE,135,0.0,0.0,42,0.00,,CLR,0.00,VWS V14.01,2013-11-13 09:30:00,
2013-11-13 04:35:00,24.1,4.8,30.41,SE,135,2.2,2.2,43,0.00,,CLR,0.00,VWS V14.01,2013-11-13 09:35:00,
2013-11-13 04:40:00,23.5,5.3,30.41,SE,135,0.0,0.0,45,0.00,,CLR,0.00,VWS V14.01,2013-11-13 09:40:00,
2013-11-13 04:45:00,23.2,5.5,30.41,SE,135,0.0,0.0,46,0.00,,CLR,0.00,VWS V14.01,2013-11-13 09:45:00,
2013-11-13 04:50:00,22.8,5.6,30.41,SE,135,0.0,0.0,47,0.00,,CLR,0.00,VWS V14.01,2013-11-13 09:50:00,
2013-11-13 04:55:00,22.6,5.5,30.41,SE,135,0.0,0.0,47,0.00,,CLR,0.00,VWS V14.01,2013-11-13 09:55:00,
2013-11-13 05:00:00,22.6,5.9,30.41,SE,135,0.0,0.0,48,0.00,,CLR,0.00,VWS V14.01,2013-11-13 10:00:00,
2013-11-13 05:05:00,22.6,5.9,30.41,SE,135,0.0,0.0,48,0.00,,CLR,0.00,VWS V14.01,2013-11-13 10:05:00,
2013-11-13 05:10:00,23.2,5.9,30.41,SE,135,0.0,0.0,47,0.00,,CLR,0.00,VWS V14.01,2013-11-13 10:10:00,
2013-11-13 05:15:00,22.8,5.6,30.41,SE,135,2.2,2.2,47,0.00,,CLR,0.00,VWS V14.01,2013-11-13 10:15:00,
2013-11-13 05:20:00,22.8,6.1,30.44,SE,135,0.0,0.0,48,0.00,,CLR,0.00,VWS V14.01,2013-11-13 10:20:00,
2013-11-13 05:25:00,22.8,6.1,30.44,SE,135,0.0,0.0,48,0.00,,CLR,0.00,VWS V14.01,2013-11-13 10:25:00,
2013-11-13 05:30:00,22.8,6.1,30.44,SE,135,2.7,3.1,48,0.00,,CLR,0.00,VWS V14.01,2013-11-13 10:30:00,
2013-11-13 05:35:00,22.6,5.9,30.44,SE,135,0.0,0.0,48,0.00,,CLR,0.00,VWS V14.01,2013-11-13 10:35:00,
2013-11-13 05:40:00,22.3,5.1,30.44,SE,135,0.0,0.0,47,0.00,,CLR,0.00,VWS V14.01,2013-11-13 10:40:00,
2013-11-13 05:45:00,22.5,5.3,30.44,SE,135,0.0,0.0,47,0.00,,CLR,0.00,VWS V14.01,2013-11-13 10:45:00,
2013-11-13 05:50:00,22.1,5.0,30.44,SE,135,0.0,0.0,47,0.00,,CLR,0.00,VWS V14.01,2013-11-13 10:50:00,
2013-11-13 05:55:00,21.9,5.2,30.44,SE,135,0.0,0.0,48,0.00,,CLR,0.00,VWS V14.01,2013-11-13 10:55:00,
2013-11-13 06:00:00,21.7,5.5,30.44,SE,135,0.0,0.0,49,0.00,,CLR,0.00,VWS V14.01,2013-11-13 11:00:00,
2013-11-13 06:05:00,21.4,6.1,30.41,SE,135,0.0,0.0,51,0.00,,CLR,0.00,VWS V14.01,2013-11-13 11:05:00,
2013-11-13 06:10:00,21.2,7.2,30.41,SE,135,2.2,2.2,54,0.00,,CLR,0.00,VWS V14.01,2013-11-13 11:10:00,
2013-11-13 06:15:00,21.0,7.4,30.41,SE,135,0.0,0.0,55,0.00,,CLR,0.00,VWS V14.01,2013-11-13 11:15:00,
2013-11-13 06:20:00,20.8,7.2,30.44,SE,135,0.0,0.0,55,0.00,,CLR,0.00,VWS V14.01,2013-11-13 11:20:00,
2013-11-13 06:25:00,20.8,7.6,30.44,SE,135,0.0,2.7,56,0.00,,CLR,0.00,VWS V14.01,2013-11-13 11:25:00,
2013-11-13 06:30:00,21.2,8.0,30.44,SE,135,0.0,0.0,56,0.00,,CLR,0.00,VWS V14.01,2013-11-13 11:30:00,
2013-11-13 06:35:00,21.2,7.6,30.44,SE,135,2.2,2.2,55,0.00,,CLR,0.00,VWS V14.01,2013-11-13 11:35:00,
2013-11-13 06:40:00,20.8,7.2,30.44,SE,135,0.0,0.0,55,0.00,,CLR,0.00,VWS V14.01,2013-11-13 11:40:00,
2013-11-13 06:45:00,20.7,7.1,30.44,SE,135,0.0,0.0,55,0.00,,CLR,0.00,VWS V14.01,2013-11-13 11:45:00,
2013-11-13 06:50:00,20.8,7.6,30.44,SE,135,0.0,2.2,56,0.00,,CLR,0.00,VWS V14.01,2013-11-13 11:50:00,
2013-11-13 06:55:00,20.5,7.7,30.44,SE,135,0.0,0.0,57,0.00,,CLR,0.00,VWS V14.01,2013-11-13 11:55:00,
2013-11-13 07:00:00,20.5,7.7,30.44,SE,135,0.0,0.0,57,0.00,,CLR,0.00,VWS V14.01,2013-11-13 12:00:00,
2013-11-13 07:05:00,20.3,7.9,30.47,SE,135,0.0,0.0,58,0.00,,CLR,0.00,VWS V14.01,2013-11-13 12:05:00,
2013-11-13 07:10:00,20.3,7.9,30.47,SE,135,0.0,0.0,58,0.00,,CLR,0.00,VWS V14.01,2013-11-13 12:10:00,
2013-11-13 07:15:00,20.3,7.9,30.47,SE,135,0.0,0.0,58,0.00,,CLR,0.00,VWS V14.01,2013-11-13 12:15:00,
2013-11-13 07:20:00,20.5,8.1,30.47,SE,135,0.0,0.0,58,0.00,,CLR,0.00,VWS V14.01,2013-11-13 12:20:00,
2013-11-13 07:25:00,20.3,7.9,30.47,SE,135,0.0,0.0,58,0.00,,CLR,0.00,VWS V14.01,2013-11-13 12:25:00,
2013-11-13 07:30:00,20.5,8.1,30.47,SE,135,0.0,0.0,58,0.00,,CLR,0.00,VWS V14.01,2013-11-13 12:30:00,
2013-11-13 07:35:00,20.3,7.9,30.47,SE,135,0.0,0.0,58,0.00,,CLR,0.00,VWS V14.01,2013-11-13 12:35:00,
2013-11-13 07:40:00,20.3,7.9,30.47,SE,135,0.0,0.0,58,0.00,,CLR,0.00,VWS V14.01,2013-11-13 12:40:00,
2013-11-13 07:45:00,20.3,8.3,30.47,SE,135,0.0,0.0,59,0.00,,CLR,0.00,VWS V14.01,2013-11-13 12:45:00,
2013-11-13 07:50:00,20.7,9.4,30.47,SE,135,0.0,0.0,61,0.00,,CLR,0.00,VWS V14.01,2013-11-13 12:50:00,
2013-11-13 07:55:00,21.0,10.4,30.47,SE,135,0.0,0.0,63,0.00,,CLR,0.00,VWS V14.01,2013-11-13 12:55:00,
2013-11-13 08:00:00,21.9,11.6,30.47,SE,135,0.0,0.0,64,0.00,,CLR,0.00,VWS V14.01,2013-11-13 13:00:00,
2013-11-13 08:05:00,22.8,12.1,30.47,SE,135,0.0,0.0,63,0.00,,CLR,0.00,VWS V14.01,2013-11-13 13:05:00,
2013-11-13 08:10:00,24.8,12.9,30.47,SE,135,2.2,2.2,60,0.00,,CLR,0.00,VWS V14.01,2013-11-13 13:10:00,
2013-11-13 08:15:00,26.6,12.2,30.47,SE,135,2.7,2.7,54,0.00,,CLR,0.00,VWS V14.01,2013-11-13 13:15:00,
2013-11-13 08:20:00,27.5,11.3,30.47,ESE,112,0.0,2.7,50,0.00,,CLR,0.00,VWS V14.01,2013-11-13 13:20:00,
2013-11-13 08:25:00,28.4,9.8,30.47,ESE,112,0.0,2.2,45,0.00,,CLR,0.00,VWS V14.01,2013-11-13 13:25:00,
2013-11-13 08:30:00,29.7,8.9,30.47,ESE,112,0.0,2.7,41,0.00,,CLR,0.00,VWS V14.01,2013-11-13 13:30:00,
2013-11-13 08:35:00,30.4,9.0,30.47,ESE,112,2.7,2.7,40,0.00,,CLR,0.00,VWS V14.01,2013-11-13 13:35:00,
2013-11-13 08:40:00,31.6,6.5,30.47,ESE,112,3.1,4.0,34,0.00,,CLR,0.00,VWS V14.01,2013-11-13 13:40:00,
2013-11-13 08:45:00,32.2,6.3,30.47,ESE,112,0.0,2.7,33,0.00,,CLR,0.00,VWS V14.01,2013-11-13 13:45:00,
2013-11-13 08:50:00,32.4,5.8,30.47,SW,225,3.6,3.6,32,0.00,,CLR,0.00,VWS V14.01,2013-11-13 13:50:00,
2013-11-13 08:55:00,32.7,5.4,30.47,SW,225,3.6,3.6,31,0.00,,CLR,0.00,VWS V14.01,2013-11-13 13:55:00,
2013-11-13 09:00:00,32.9,5.6,30.47,SW,225,2.7,2.7,31,0.00,,CLR,0.00,VWS V14.01,2013-11-13 14:00:00,
2013-11-13 09:05:00,33.1,5.8,30.47,SW,225,2.2,2.2,31,0.00,,CLR,0.00,VWS V14.01,2013-11-13 14:05:00,
2013-11-13 09:10:00,33.6,5.5,30.47,SW,225,3.1,3.1,30,0.00,,CLR,0.00,VWS V14.01,2013-11-13 14:10:00,
2013-11-13 09:15:00,33.8,5.7,30.47,SW,225,0.0,2.2,30,0.00,,CLR,0.00,VWS V14.01,2013-11-13 14:15:00,
2013-11-13 09:20:00,34.2,6.0,30.47,SSW,202,2.2,2.2,30,0.00,,CLR,0.00,VWS V14.01,2013-11-13 14:20:00,
2013-11-13 09:25:00,34.5,4.0,30.47,SSW,202,2.2,2.2,27,0.00,,CLR,0.00,VWS V14.01,2013-11-13 14:25:00,
2013-11-13 09:30:00,34.7,4.2,30.47,SSW,202,0.0,0.0,27,0.00,,CLR,0.00,VWS V14.01,2013-11-13 14:30:00,
2013-11-13 09:35:00,35.2,4.6,30.47,WSW,248,3.1,3.6,27,0.00,,CLR,0.00,VWS V14.01,2013-11-13 14:35:00,
2013-11-13 09:40:00,36.3,5.6,30.47,NW,315,0.0,2.2,27,0.00,,CLR,0.00,VWS V14.01,2013-11-13 14:40:00,
2013-11-13 09:46:00,37.0,3.6,30.47,NW,315,0.0,3.1,24,0.00,,CLR,0.00,VWS V14.01,2013-11-13 14:46:00,
2013-11-13 09:51:00,37.2,3.8,30.47,WNW,292,2.2,2.7,24,0.00,,CLR,0.00,VWS V14.01,2013-11-13 14:51:00,
2013-11-13 09:56:00,38.1,4.5,30.47,WNW,292,2.2,2.7,24,0.00,,CLR,0.00,VWS V14.01,2013-11-13 14:56:00,
2013-11-13 10:01:00,38.7,5.0,30.47,WNW,292,2.7,2.7,24,0.00,,CLR,0.00,VWS V14.01,2013-11-13 15:01:00,
2013-11-13 10:06:00,39.9,5.1,30.47,NE,45,3.6,3.6,23,0.00,,CLR,0.00,VWS V14.01,2013-11-13 15:06:00,
2013-11-13 10:11:00,41.7,6.7,30.47,ENE,68,2.7,2.7,23,0.00,,CLR,0.00,VWS V14.01,2013-11-13 15:11:00,
2013-11-13 10:16:00,40.6,5.8,30.47,WNW,292,2.7,2.7,23,0.00,,CLR,0.00,VWS V14.01,2013-11-13 15:16:00,
2013-11-13 10:21:00,40.6,5.8,30.47,WNW,292,2.2,3.6,23,0.00,,CLR,0.00,VWS V14.01,2013-11-13 15:21:00,
2013-11-13 10:26:00,43.0,7.7,30.47,WNW,292,0.0,0.0,23,0.00,,CLR,0.00,VWS V14.01,2013-11-13 15:26:00,
2013-11-13 10:31:00,44.2,8.8,30.47,SSW,202,2.2,2.7,23,0.00,,CLR,0.00,VWS V14.01,2013-11-13 15:31:00,
2013-11-13 10:36:00,44.6,6.0,30.47,SSW,202,2.7,2.7,20,0.00,,CLR,0.00,VWS V14.01,2013-11-13 15:36:00,
2013-11-13 10:41:00,43.2,4.8,30.47,WNW,292,2.7,4.0,20,0.00,,CLR,0.00,VWS V14.01,2013-11-13 15:41:00,
2013-11-13 10:46:00,42.3,5.1,30.47,WSW,248,0.0,3.6,21,0.00,,CLR,0.00,VWS V14.01,2013-11-13 15:46:00,
2013-11-13 10:51:00,42.4,5.3,30.47,West,270,4.0,4.0,21,0.00,,CLR,0.00,VWS V14.01,2013-11-13 15:51:00,
2013-11-13 10:56:00,44.6,6.0,30.47,WSW,248,3.6,3.6,20,0.00,,CLR,0.00,VWS V14.01,2013-11-13 15:56:00,
2013-11-13 11:01:00,43.5,5.1,30.47,WSW,248,3.1,3.1,20,0.00,,CLR,0.00,VWS V14.01,2013-11-13 16:01:00,
2013-11-13 11:06:00,44.1,5.6,30.47,WNW,292,0.0,2.2,20,0.00,,CLR,0.00,VWS V14.01,2013-11-13 16:06:00,
2013-11-13 11:11:00,43.9,5.4,30.47,West,270,4.5,4.5,20,0.00,,CLR,0.00,VWS V14.01,2013-11-13 16:11:00,
2013-11-13 11:16:00,43.3,5.0,30.47,WSW,248,4.0,4.0,20,0.00,,CLR,0.00,VWS V14.01,2013-11-13 16:16:00,
2013-11-13 11:21:00,44.4,5.9,30.47,WSW,248,3.6,3.6,20,0.00,,CLR,0.00,VWS V14.01,2013-11-13 16:21:00,
2013-11-13 11:26:00,44.1,5.6,30.47,West,270,3.1,3.1,20,0.00,,CLR,0.00,VWS V14.01,2013-11-13 16:26:00,
2013-11-13 11:31:00,46.0,7.2,30.47,West,270,3.1,3.1,20,0.00,,CLR,0.00,VWS V14.01,2013-11-13 16:31:00,
2013-11-13 11:36:00,46.0,7.2,30.47,WNW,292,2.7,2.7,20,0.00,,CLR,0.00,VWS V14.01,2013-11-13 16:36:00,
2013-11-13 11:41:00,47.5,7.3,30.47,WSW,248,4.0,4.0,19,0.00,,CLR,0.00,VWS V14.01,2013-11-13 16:41:00,
2013-11-13 11:46:00,48.2,7.9,30.47,WSW,248,2.2,2.2,19,0.00,,CLR,0.00,VWS V14.01,2013-11-13 16:46:00,
2013-11-13 11:51:00,49.8,9.2,30.47,WSW,248,0.0,0.0,19,0.00,,CLR,0.00,VWS V14.01,2013-11-13 16:51:00,
2013-11-13 11:56:00,50.2,9.5,30.47,WSW,248,2.2,2.2,19,0.00,,CLR,0.00,VWS V14.01,2013-11-13 16:56:00,
2013-11-13 12:01:00,48.7,8.3,30.47,NE,45,2.7,2.7,19,0.00,,CLR,0.00,VWS V14.01,2013-11-13 17:01:00,
2013-11-13 12:06:00,49.3,8.8,30.47,SSW,202,2.7,2.7,19,0.00,,CLR,0.00,VWS V14.01,2013-11-13 17:06:00,
2013-11-13 12:11:00,47.3,7.1,30.47,SSE,158,8.3,8.3,19,0.00,,CLR,0.00,VWS V14.01,2013-11-13 17:11:00,
2013-11-13 12:16:00,46.9,6.8,30.47,South,180,3.6,4.9,19,0.00,,CLR,0.00,VWS V14.01,2013-11-13 17:16:00,
2013-11-13 12:21:00,48.2,7.9,30.44,SE,135,3.1,3.1,19,0.00,,CLR,0.00,VWS V14.01,2013-11-13 17:21:00,
2013-11-13 12:26:00,48.6,8.2,30.44,SSW,202,3.6,3.6,19,0.00,,CLR,0.00,VWS V14.01,2013-11-13 17:26:00,
2013-11-13 12:31:00,47.7,7.4,30.44,SSW,202,6.3,6.3,19,0.00,,CLR,0.00,VWS V14.01,2013-11-13 17:31:00,
2013-11-13 12:36:00,48.0,7.7,30.44,SSE,158,3.1,4.0,19,0.00,,CLR,0.00,VWS V14.01,2013-11-13 17:36:00,
2013-11-13 12:41:00,48.0,7.7,30.44,SSE,158,5.4,5.4,19,0.00,,CLR,0.00,VWS V14.01,2013-11-13 17:41:00,
2013-11-13 12:46:00,48.2,7.9,30.44,SSW,202,2.7,3.1,19,0.00,,CLR,0.00,VWS V14.01,2013-11-13 17:46:00,
2013-11-13 12:51:00,50.0,9.4,30.44,WSW,248,2.2,2.2,19,0.00,,CLR,0.00,VWS V14.01,2013-11-13 17:51:00,
2013-11-13 12:56:00,51.4,10.6,30.44,WSW,248,2.2,2.2,19,0.00,,CLR,0.00,VWS V14.01,2013-11-13 17:56:00,
2013-11-13 13:01:00,51.6,10.7,30.44,WSW,248,3.1,3.1,19,0.00,,CLR,0.00,VWS V14.01,2013-11-13 18:01:00,
2013-11-13 13:06:00,48.7,8.3,30.44,SSW,202,4.0,4.0,19,0.00,,CLR,0.00,VWS V14.01,2013-11-13 18:06:00,
2013-11-13 13:11:00,48.6,8.2,30.44,SSE,158,3.6,5.4,19,0.00,,CLR,0.00,VWS V14.01,2013-11-13 18:11:00,
2013-11-13 13:16:00,49.6,9.1,30.44,SW,225,3.6,3.6,19,0.00,,CLR,0.00,VWS V14.01,2013-11-13 18:16:00,
2013-11-13 13:21:00,48.7,8.3,30.41,South,180,4.0,4.0,19,0.00,,CLR,0.00,VWS V14.01,2013-11-13 18:21:00,
2013-11-13 13:26:00,49.8,9.2,30.41,SSE,158,3.1,4.0,19,0.00,,CLR,0.00,VWS V14.01,2013-11-13 18:26:00,
2013-11-13 13:31:00,49.3,8.8,30.41,WSW,248,3.6,3.6,19,0.00,,CLR,0.00,VWS V14.01,2013-11-13 18:31:00,
2013-11-13 13:36:00,49.1,8.6,30.41,WNW,292,5.4,5.4,19,0.00,,CLR,0.00,VWS V14.01,2013-11-13 18:36:00,
2013-11-13 13:41:00,50.7,10.0,30.41,SW,225,3.6,4.5,19,0.00,,CLR,0.00,VWS V14.01,2013-11-13 18:41:00,
2013-11-13 13:46:00,50.7,10.0,30.41,SW,225,0.0,0.0,19,0.00,,CLR,0.00,VWS V14.01,2013-11-13 18:46:00,
2013-11-13 13:51:00,52.3,10.1,30.41,SW,225,2.7,3.1,18,0.00,,CLR,0.00,VWS V14.01,2013-11-13 18:51:00,
2013-11-13 13:56:00,52.7,10.4,30.41,South,180,0.0,2.7,18,0.00,,CLR,0.00,VWS V14.01,2013-11-13 18:56:00,
2013-11-13 14:01:00,52.3,10.1,30.41,ENE,68,2.7,3.1,18,0.00,,CLR,0.00,VWS V14.01,2013-11-13 19:01:00,
2013-11-13 14:06:00,52.9,10.6,30.41,ENE,68,2.7,2.7,18,0.00,,CLR,0.00,VWS V14.01,2013-11-13 19:06:00,
2013-11-13 14:11:00,52.9,10.6,30.41,ENE,68,2.2,2.7,18,0.00,,CLR,0.00,VWS V14.01,2013-11-13 19:11:00,
2013-11-13 14:16:00,51.4,10.6,30.41,West,270,3.1,3.1,19,0.00,,CLR,0.00,VWS V14.01,2013-11-13 19:16:00,
2013-11-13 14:21:00,53.4,11.0,30.39,West,270,0.0,2.2,18,0.00,,CLR,0.00,VWS V14.01,2013-11-13 19:21:00,
2013-11-13 14:26:00,54.3,11.7,30.39,West,270,0.0,2.2,18,0.00,,CLR,0.00,VWS V14.01,2013-11-13 19:26:00,
2013-11-13 14:31:00,52.7,10.4,30.39,West,270,3.1,3.6,18,0.00,,CLR,0.00,VWS V14.01,2013-11-13 19:31:00,
2013-11-13 14:37:00,52.9,10.6,30.41,West,270,2.7,3.1,18,0.00,,CLR,0.00,VWS V14.01,2013-11-13 19:37:00,
2013-11-13 14:42:00,53.1,10.7,30.41,West,270,2.2,2.2,18,0.00,,CLR,0.00,VWS V14.01,2013-11-13 19:42:00,
2013-11-13 14:47:00,52.7,10.4,30.41,WSW,248,0.0,3.1,18,0.00,,CLR,0.00,VWS V14.01,2013-11-13 19:47:00,
2013-11-13 14:52:00,53.1,10.7,30.39,WSW,248,3.1,3.1,18,0.00,,CLR,0.00,VWS V14.01,2013-11-13 19:52:00,
2013-11-13 14:57:00,51.3,10.4,30.39,WSW,248,2.7,3.1,19,0.00,,CLR,0.00,VWS V14.01,2013-11-13 19:57:00,
2013-11-13 15:02:00,50.9,10.1,30.39,WSW,248,2.7,2.7,19,0.00,,CLR,0.00,VWS V14.01,2013-11-13 20:02:00,
2013-11-13 15:07:00,50.5,9.8,30.39,WSW,248,0.0,0.0,19,0.00,,CLR,0.00,VWS V14.01,2013-11-13 20:07:00,
2013-11-13 15:12:00,49.5,8.9,30.39,SSE,158,2.2,2.2,19,0.00,,CLR,0.00,VWS V14.01,2013-11-13 20:12:00,
2013-11-13 15:17:00,49.5,8.9,30.39,SSE,158,0.0,0.0,19,0.00,,CLR,0.00,VWS V14.01,2013-11-13 20:17:00,
2013-11-13 15:22:00,49.8,9.2,30.39,SSE,158,2.2,2.2,19,0.00,,CLR,0.00,VWS V14.01,2013-11-13 20:22:00,
2013-11-13 15:27:00,49.5,8.9,30.39,WSW,248,3.1,3.1,19,0.00,,CLR,0.00,VWS V14.01,2013-11-13 20:27:00,
2013-11-13 15:32:00,50.4,9.7,30.39,WSW,248,0.0,0.0,19,0.00,,CLR,0.00,VWS V14.01,2013-11-13 20:32:00,
2013-11-13 15:37:00,50.4,9.7,30.39,WSW,248,2.7,2.7,19,0.00,,CLR,0.00,VWS V14.01,2013-11-13 20:37:00,
2013-11-13 15:42:00,50.7,10.0,30.39,WSW,248,0.0,0.0,19,0.00,,CLR,0.00,VWS V14.01,2013-11-13 20:42:00,
2013-11-13 15:47:00,51.3,10.4,30.39,WSW,248,0.0,0.0,19,0.00,,CLR,0.00,VWS V14.01,2013-11-13 20:47:00,
2013-11-13 15:52:00,51.1,10.3,30.39,WSW,248,0.0,2.2,19,0.00,,CLR,0.00,VWS V14.01,2013-11-13 20:52:00,
2013-11-13 15:57:00,51.3,10.4,30.39,WSW,248,0.0,2.2,19,0.00,,CLR,0.00,VWS V14.01,2013-11-13 20:57:00,
2013-11-13 16:02:00,51.4,10.6,30.39,WSW,248,2.2,2.2,19,0.00,,CLR,0.00,VWS V14.01,2013-11-13 21:02:00,
2013-11-13 16:07:00,51.1,10.3,30.41,WSW,248,2.2,2.7,19,0.00,,CLR,0.00,VWS V14.01,2013-11-13 21:07:00,
2013-11-13 16:12:00,50.4,9.7,30.41,WSW,248,0.0,0.0,19,0.00,,CLR,0.00,VWS V14.01,2013-11-13 21:12:00,
2013-11-13 16:17:00,49.8,9.2,30.41,WSW,248,0.0,0.0,19,0.00,,CLR,0.00,VWS V14.01,2013-11-13 21:17:00,
2013-11-13 16:22:00,49.1,8.6,30.41,WSW,248,0.0,0.0,19,0.00,,CLR,0.00,VWS V14.01,2013-11-13 21:22:00,
2013-11-13 16:27:00,48.4,8.0,30.41,WSW,248,0.0,0.0,19,0.00,,CLR,0.00,VWS V14.01,2013-11-13 21:27:00,
2013-11-13 16:32:00,48.0,7.7,30.41,WSW,248,0.0,0.0,19,0.00,,CLR,0.00,VWS V14.01,2013-11-13 21:32:00,
2013-11-13 16:37:00,47.5,7.3,30.41,WSW,248,0.0,0.0,19,0.00,,CLR,0.00,VWS V14.01,2013-11-13 21:37:00,
2013-11-13 16:42:00,47.1,7.0,30.41,WSW,248,0.0,0.0,19,0.00,,CLR,0.00,VWS V14.01,2013-11-13 21:42:00,
2013-11-13 16:48:00,46.9,6.8,30.39,WSW,248,0.0,2.2,19,0.00,,CLR,0.00,VWS V14.01,2013-11-13 21:48:00,
2013-11-13 16:53:00,46.6,6.5,30.39,WSW,248,0.0,0.0,19,0.00,,CLR,0.00,VWS V14.01,2013-11-13 21:53:00,
2013-11-13 16:58:00,46.0,7.2,30.39,WSW,248,0.0,0.0,20,0.00,,CLR,0.00,VWS V14.01,2013-11-13 21:58:00,
2013-11-13 17:03:00,45.1,6.5,30.41,WSW,248,0.0,0.0,20,0.00,,CLR,0.00,VWS V14.01,2013-11-13 22:03:00,
2013-11-13 17:08:00,45.3,6.6,30.41,WSW,248,2.2,3.1,20,0.00,,CLR,0.00,VWS V14.01,2013-11-13 22:08:00,
2013-11-13 17:13:00,44.8,6.2,30.41,WSW,248,0.0,0.0,20,0.00,,CLR,0.00,VWS V14.01,2013-11-13 22:13:00,
2013-11-13 17:18:00,44.8,6.2,30.41,WSW,248,0.0,2.2,20,0.00,,CLR,0.00,VWS V14.01,2013-11-13 22:18:00,
2013-11-13 17:23:00,44.2,5.7,30.41,WSW,248,0.0,0.0,20,0.00,,CLR,0.00,VWS V14.01,2013-11-13 22:23:00,
2013-11-13 17:28:00,43.5,5.1,30.41,WSW,248,0.0,0.0,20,0.00,,CLR,0.00,VWS V14.01,2013-11-13 22:28:00,
2013-11-13 17:33:00,43.0,4.7,30.41,WSW,248,0.0,0.0,20,0.00,,CLR,0.00,VWS V14.01,2013-11-13 22:33:00,
2013-11-13 17:38:00,42.3,5.1,30.41,WSW,248,0.0,0.0,21,0.00,,CLR,0.00,VWS V14.01,2013-11-13 22:38:00,
2013-11-13 17:43:00,41.7,4.7,30.41,WSW,248,0.0,0.0,21,0.00,,CLR,0.00,VWS V14.01,2013-11-13 22:43:00,
2013-11-13 17:48:00,41.0,4.1,30.41,WSW,248,0.0,0.0,21,0.00,,CLR,0.00,VWS V14.01,2013-11-13 22:48:00,
2013-11-13 17:53:00,40.3,3.5,30.41,WSW,248,0.0,0.0,21,0.00,,CLR,0.00,VWS V14.01,2013-11-13 22:53:00,
2013-11-13 17:58:00,39.4,2.7,30.41,WSW,248,0.0,0.0,21,0.00,,CLR,0.00,VWS V14.01,2013-11-13 22:58:00,
2013-11-13 18:03:00,39.2,2.6,30.41,WSW,248,0.0,0.0,21,0.00,,CLR,0.00,VWS V14.01,2013-11-13 23:03:00,
2013-11-13 18:08:00,39.0,2.4,30.41,WSW,248,0.0,0.0,21,0.00,,CLR,0.00,VWS V14.01,2013-11-13 23:08:00,
2013-11-13 18:13:00,39.4,2.7,30.41,WSW,248,0.0,0.0,21,0.00,,CLR,0.00,VWS V14.01,2013-11-13 23:13:00,
2013-11-13 18:19:00,39.4,2.7,30.41,WSW,248,0.0,0.0,21,0.00,,CLR,0.00,VWS V14.01,2013-11-13 23:19:00,
2013-11-13 18:24:00,38.7,2.1,30.41,WSW,248,0.0,0.0,21,0.00,,CLR,0.00,VWS V14.01,2013-11-13 23:24:00,
2013-11-13 18:29:00,38.3,4.7,30.41,WSW,248,0.0,0.0,24,0.00,,CLR,0.00,VWS V14.01,2013-11-13 23:29:00,
2013-11-13 18:34:00,37.8,4.2,30.41,WSW,248,0.0,2.2,24,0.00,,CLR,0.00,VWS V14.01,2013-11-13 23:34:00,
2013-11-13 18:39:00,37.0,6.2,30.41,WSW,248,0.0,0.0,27,0.00,,CLR,0.00,VWS V14.01,2013-11-13 23:39:00,
2013-11-13 18:44:00,36.1,7.7,30.41,WSW,248,0.0,0.0,30,0.00,,CLR,0.00,VWS V14.01,2013-11-13 23:44:00,
2013-11-13 18:49:00,36.3,7.1,30.44,WSW,248,0.0,3.1,29,0.00,,CLR,0.00,VWS V14.01,2013-11-13 23:49:00,
2013-11-13 18:54:00,35.6,6.5,30.44,WSW,248,0.0,0.0,29,0.00,,CLR,0.00,VWS V14.01,2013-11-13 23:54:00,
2013-11-13 18:59:00,35.6,6.5,30.44,WSW,248,0.0,0.0,29,0.00,,CLR,0.00,VWS V14.01,2013-11-13 23:59:00,
2013-11-13 19:04:00,35.1,6.8,30.44,WSW,248,0.0,2.7,30,0.00,,CLR,0.00,VWS V14.01,2013-11-14 00:04:00,
2013-11-13 19:09:00,35.1,6.8,30.44,WSW,248,0.0,0.0,30,0.00,,CLR,0.00,VWS V14.01,2013-11-14 00:09:00,
2013-11-13 19:14:00,35.1,6.8,30.44,WSW,248,0.0,0.0,30,0.00,,CLR,0.00,VWS V14.01,2013-11-14 00:14:00,
2013-11-13 19:19:00,34.5,6.3,30.44,WSW,248,0.0,0.0,30,0.00,,CLR,0.00,VWS V14.01,2013-11-14 00:19:00,
2013-11-13 19:24:00,34.0,5.8,30.44,WSW,248,0.0,0.0,30,0.00,,CLR,0.00,VWS V14.01,2013-11-14 00:24:00,
2013-11-13 19:29:00,34.0,5.8,30.44,WSW,248,0.0,0.0,30,0.00,,CLR,0.00,VWS V14.01,2013-11-14 00:29:00,
2013-11-13 19:34:00,33.3,5.9,30.44,WSW,248,0.0,0.0,31,0.00,,CLR,0.00,VWS V14.01,2013-11-14 00:34:00,
2013-11-13 19:39:00,32.7,5.4,30.44,WSW,248,0.0,0.0,31,0.00,,CLR,0.00,VWS V14.01,2013-11-14 00:39:00,
2013-11-13 19:44:00,32.2,5.7,30.44,WSW,248,0.0,0.0,32,0.00,,CLR,0.00,VWS V14.01,2013-11-14 00:44:00,
2013-11-13 19:49:00,31.8,6.7,30.44,WSW,248,0.0,0.0,34,0.00,,CLR,0.00,VWS V14.01,2013-11-14 00:49:00,
2013-11-13 19:54:00,31.3,6.2,30.44,WSW,248,0.0,0.0,34,0.00,,CLR,0.00,VWS V14.01,2013-11-14 00:54:00,
2013-11-13 20:00:00,30.7,5.7,30.44,WSW,248,0.0,0.0,34,0.00,,CLR,0.00,VWS V14.01,2013-11-14 01:00:00,
2013-11-13 20:05:00,30.4,6.6,30.44,WSW,248,0.0,0.0,36,0.00,,CLR,0.00,VWS V14.01,2013-11-14 01:05:00,
2013-11-13 20:10:00,30.2,8.8,30.44,WSW,248,0.0,0.0,40,0.00,,CLR,0.00,VWS V14.01,2013-11-14 01:10:00,
2013-11-13 20:15:00,30.0,9.2,30.44,WSW,248,0.0,0.0,41,0.00,,CLR,0.00,VWS V14.01,2013-11-14 01:15:00,
2013-11-13 20:20:00,29.8,9.6,30.44,WSW,248,0.0,0.0,42,0.00,,CLR,0.00,VWS V14.01,2013-11-14 01:20:00,
2013-11-13 20:25:00,29.5,9.8,30.44,WSW,248,0.0,0.0,43,0.00,,CLR,0.00,VWS V14.01,2013-11-14 01:25:00,
2013-11-13 20:30:00,29.3,9.6,30.44,WSW,248,0.0,0.0,43,0.00,,CLR,0.00,VWS V14.01,2013-11-14 01:30:00,
2013-11-13 20:35:00,28.8,9.1,30.44,WSW,248,0.0,0.0,43,0.00,,CLR,0.00,VWS V14.01,2013-11-14 01:35:00,
2013-11-13 20:40:00,28.6,9.4,30.44,WSW,248,0.0,0.0,44,0.00,,CLR,0.00,VWS V14.01,2013-11-14 01:40:00,
2013-11-13 20:45:00,28.4,9.3,30.44,WSW,248,0.0,0.0,44,0.00,,CLR,0.00,VWS V14.01,2013-11-14 01:45:00,
2013-11-13 20:50:00,28.0,8.9,30.44,WSW,248,0.0,0.0,44,0.00,,CLR,0.00,VWS V14.01,2013-11-14 01:50:00,
2013-11-13 20:55:00,27.7,9.1,30.44,WSW,248,0.0,0.0,45,0.00,,CLR,0.00,VWS V14.01,2013-11-14 01:55:00,
2013-11-13 21:00:00,27.5,10.4,30.44,WSW,248,0.0,0.0,48,0.00,,CLR,0.00,VWS V14.01,2013-11-14 02:00:00,
2013-11-13 21:06:00,27.1,11.0,30.44,WSW,248,0.0,0.0,50,0.00,,CLR,0.00,VWS V14.01,2013-11-14 02:06:00,
2013-11-13 21:11:00,27.3,11.1,30.44,WSW,248,2.2,2.2,50,0.00,,CLR,0.00,VWS V14.01,2013-11-14 02:11:00,
2013-11-13 21:16:00,27.5,11.3,30.44,WSW,248,0.0,0.0,50,0.00,,CLR,0.00,VWS V14.01,2013-11-14 02:16:00,
2013-11-13 21:21:00,27.5,11.3,30.44,WSW,248,0.0,0.0,50,0.00,,CLR,0.00,VWS V14.01,2013-11-14 02:21:00,
2013-11-13 21:26:00,27.3,11.1,30.44,WSW,248,0.0,0.0,50,0.00,,CLR,0.00,VWS V14.01,2013-11-14 02:26:00,
2013-11-13 21:31:00,27.7,11.0,30.44,WSW,248,2.2,2.2,49,0.00,,CLR,0.00,VWS V14.01,2013-11-14 02:31:00,
2013-11-13 21:36:00,27.7,11.0,30.44,WSW,248,0.0,0.0,49,0.00,,CLR,0.00,VWS V14.01,2013-11-14 02:36:00,
2013-11-13 21:41:00,27.0,10.4,30.44,WSW,248,0.0,0.0,49,0.00,,CLR,0.00,VWS V14.01,2013-11-14 02:41:00,
2013-11-13 21:46:00,26.6,10.0,30.44,WSW,248,0.0,0.0,49,0.00,,CLR,0.00,VWS V14.01,2013-11-14 02:46:00,
2013-11-13 21:51:00,26.4,10.3,30.44,WSW,248,0.0,0.0,50,0.00,,CLR,0.00,VWS V14.01,2013-11-14 02:51:00,
2013-11-13 21:56:00,26.4,10.3,30.44,WSW,248,0.0,0.0,50,0.00,,CLR,0.00,VWS V14.01,2013-11-14 02:56:00,
2013-11-13 22:01:00,25.9,10.3,30.44,WSW,248,0.0,0.0,51,0.00,,CLR,0.00,VWS V14.01,2013-11-14 03:01:00,
2013-11-13 22:06:00,25.9,10.7,30.44,WSW,248,0.0,0.0,52,0.00,,CLR,0.00,VWS V14.01,2013-11-14 03:06:00,
2013-11-13 22:11:00,25.9,11.1,30.44,WSW,248,0.0,0.0,53,0.00,,CLR,0.00,VWS V14.01,2013-11-14 03:11:00,
2013-11-13 22:16:00,25.9,11.5,30.44,WSW,248,0.0,0.0,54,0.00,,CLR,0.00,VWS V14.01,2013-11-14 03:16:00,
2013-11-13 22:21:00,25.9,11.9,30.44,WSW,248,0.0,0.0,55,0.00,,CLR,0.00,VWS V14.01,2013-11-14 03:21:00,
2013-11-13 22:26:00,25.5,11.6,30.44,WSW,248,0.0,0.0,55,0.00,,CLR,0.00,VWS V14.01,2013-11-14 03:26:00,
2013-11-13 22:31:00,25.2,11.7,30.44,WSW,248,0.0,0.0,56,0.00,,CLR,0.00,VWS V14.01,2013-11-14 03:31:00,
2013-11-13 22:36:00,25.0,11.5,30.41,WSW,248,0.0,0.0,56,0.00,,CLR,0.00,VWS V14.01,2013-11-14 03:36:00,
2013-11-13 22:41:00,24.8,11.7,30.41,WSW,248,0.0,0.0,57,0.00,,CLR,0.00,VWS V14.01,2013-11-14 03:41:00,
2013-11-13 22:47:00,25.3,12.2,30.41,WSW,248,0.0,0.0,57,0.00,,CLR,0.00,VWS V14.01,2013-11-14 03:47:00,
2013-11-13 22:52:00,25.3,12.2,30.41,WSW,248,0.0,0.0,57,0.00,,CLR,0.00,VWS V14.01,2013-11-14 03:52:00,
2013-11-13 22:57:00,25.7,13.0,30.41,WSW,248,0.0,0.0,58,0.00,,CLR,0.00,VWS V14.01,2013-11-14 03:57:00,
2013-11-13 23:02:00,25.9,13.1,30.41,WSW,248,0.0,0.0,58,0.00,,CLR,0.00,VWS V14.01,2013-11-14 04:02:00,
2013-11-13 23:07:00,25.5,12.4,30.41,WSW,248,0.0,0.0,57,0.00,,CLR,0.00,VWS V14.01,2013-11-14 04:07:00,
2013-11-13 23:12:00,25.3,12.2,30.41,WSW,248,0.0,0.0,57,0.00,,CLR,0.00,VWS V14.01,2013-11-14 04:12:00,
2013-11-13 23:17:00,25.5,12.4,30.41,WSW,248,2.2,2.2,57,0.00,,CLR,0.00,VWS V14.01,2013-11-14 04:17:00,
2013-11-13 23:22:00,25.3,12.6,30.41,WSW,248,0.0,0.0,58,0.00,,CLR,0.00,VWS V14.01,2013-11-14 04:22:00,
2013-11-13 23:27:00,25.0,12.7,30.41,WSW,248,0.0,0.0,59,0.00,,CLR,0.00,VWS V14.01,2013-11-14 04:27:00,
2013-11-13 23:32:00,25.0,12.7,30.41,WSW,248,0.0,2.2,59,0.00,,CLR,0.00,VWS V14.01,2013-11-14 04:32:00,
2013-11-13 23:37:00,24.8,12.9,30.41,WSW,248,0.0,0.0,60,0.00,,CLR,0.00,VWS V14.01,2013-11-14 04:37:00,
2013-11-13 23:42:00,24.8,13.3,30.41,WSW,248,0.0,0.0,61,0.00,,CLR,0.00,VWS V14.01,2013-11-14 04:42:00,
2013-11-13 23:47:00,24.4,13.3,30.41,WSW,248,0.0,0.0,62,0.00,,CLR,0.00,VWS V14.01,2013-11-14 04:47:00,
2013-11-13 23:52:00,24.4,13.3,30.41,WSW,248,2.2,2.2,62,0.00,,CLR,0.00,VWS V14.01,2013-11-14 04:52:00,
2013-11-13 23:57:00,24.6,13.8,30.41,WSW,248,0.0,0.0,63,0.00,,CLR,0.00,VWS V14.01,2013-11-14 04:57:00,